createdAt,value
2022-12-23T00:01:39.245Z,11.40
2022-12-23T00:04:08.584Z,15.10
2022-12-23T00:06:37.032Z,13.93
2022-12-23T00:09:05.466Z,11.95
2022-12-23T00:11:33.991Z,12.13
2022-12-23T00:14:22.161Z,14.10
2022-12-23T00:16:51.169Z,12.77
2022-12-23T00:19:19.846Z,14.90
2022-12-23T00:21:48.611Z,14.85
2022-12-23T00:24:17.092Z,15.95
2022-12-23T00:26:45.477Z,11.32
2022-12-23T00:29:13.878Z,13.50
2022-12-23T00:31:42.412Z,13.05
2022-12-23T00:34:12.304Z,13.23
2022-12-23T00:36:40.821Z,13.60
2022-12-23T00:39:31.024Z,12.80
2022-12-23T00:42:17.844Z,16.67
2022-12-23T00:44:46.198Z,12.13
2022-12-23T00:47:34.541Z,15.77
2022-12-23T00:50:02.976Z,11.27
2022-12-23T00:52:31.586Z,12.70
2022-12-23T00:55:00.034Z,14.05
2022-12-23T00:57:28.439Z,15.23
2022-12-23T00:59:56.822Z,19.42
2022-12-23T01:02:44.041Z,14.88
2022-12-23T01:05:41.874Z,14.85
2022-12-23T01:08:11.941Z,14.70
2022-12-23T01:10:40.839Z,16.35
2022-12-23T01:13:09.261Z,15.25
2022-12-23T01:15:37.634Z,15.25
2022-12-23T01:18:06.071Z,13.57
2022-12-23T01:20:34.635Z,17.35
2022-12-23T01:23:03.015Z,15.20
2022-12-23T01:25:31.943Z,16.70
2022-12-23T01:28:00.417Z,17.73
2022-12-23T01:30:29.025Z,18.80
2022-12-23T01:32:57.437Z,18.10
2022-12-23T01:35:25.830Z,17.83
2022-12-23T01:37:54.391Z,15.45
2022-12-23T01:40:22.797Z,16.77
2022-12-23T01:42:51.231Z,15.48
2022-12-23T01:45:30.099Z,15.38
2022-12-23T01:48:09.894Z,17.92
2022-12-23T01:50:44.660Z,18.55
2022-12-23T01:53:19.232Z,22.52
2022-12-23T01:55:59.296Z,17.10
2022-12-23T01:58:34.166Z,18.75
2022-12-23T02:01:21.686Z,20.88
2022-12-23T02:03:54.600Z,21.20
2022-12-23T02:06:45.401Z,20.23
2022-12-23T02:09:19.048Z,19.35
2022-12-23T02:12:05.791Z,18.73
2022-12-23T02:15:15.060Z,19.08
2022-12-23T02:17:55.450Z,24.85
2022-12-23T02:20:51.120Z,19.45
2022-12-23T02:23:44.357Z,19.52
2022-12-23T02:26:15.739Z,19.92
2022-12-23T02:29:19.638Z,18.50
2022-12-23T02:32:08.686Z,19.40
2022-12-23T02:34:55.986Z,19.40
2022-12-23T02:37:37.542Z,18.50
2022-12-23T02:40:35.321Z,18.38
2022-12-23T02:43:16.040Z,20.17
2022-12-23T02:46:02.648Z,20.33
2022-12-23T02:48:40.711Z,26.05
2022-12-23T02:51:11.716Z,19.50
2022-12-23T02:53:49.818Z,19.88
2022-12-23T02:56:21.488Z,19.52
2022-12-23T02:59:00.027Z,19.83
2022-12-23T03:01:31.778Z,23.77
2022-12-23T03:04:00.507Z,20.60
2022-12-23T03:06:34.883Z,17.52
2022-12-23T03:09:03.548Z,20.75
2022-12-23T03:12:16.279Z,18.60
2022-12-23T03:14:51.069Z,23.27
2022-12-23T03:17:54.709Z,19.60
2022-12-23T03:20:41.453Z,18.73
2022-12-23T03:23:17.835Z,19.80
2022-12-23T03:26:02.957Z,19.05
2022-12-23T03:28:44.726Z,18.55
2022-12-23T03:31:18.914Z,19.25
2022-12-23T03:33:53.774Z,18.60
2022-12-23T03:36:32.108Z,18.10
2022-12-23T03:39:04.447Z,18.40
2022-12-23T03:41:42.356Z,20.42
2022-12-23T03:44:15.703Z,17.42
2022-12-23T03:46:52.701Z,16.50
2022-12-23T03:49:30.829Z,17.80
2022-12-23T03:52:21.696Z,21.20
2022-12-23T03:54:54.163Z,16.02
2022-12-23T03:59:54.994Z,16.65
2022-12-23T04:02:47.196Z,21.50
2022-12-23T04:05:25.089Z,18.92
2022-12-23T04:08:16.106Z,20.05
2022-12-23T04:10:45.370Z,18.92
2022-12-23T04:13:13.817Z,18.73
2022-12-23T04:15:42.790Z,20.15
2022-12-23T04:18:11.577Z,19.98
2022-12-23T04:20:40.006Z,19.10
2022-12-23T04:23:08.419Z,17.58
2022-12-23T04:25:37.767Z,17.55
2022-12-23T04:28:06.329Z,17.23
2022-12-23T04:30:35.127Z,18.45
2022-12-23T04:33:03.852Z,14.60
2022-12-23T04:35:32.229Z,19.92
2022-12-23T04:38:00.649Z,18.20
2022-12-23T04:40:29.164Z,17.38
2022-12-23T04:42:57.581Z,18.83
2022-12-23T04:45:26.027Z,20.50
2022-12-23T04:47:55.273Z,17.27
2022-12-23T04:50:23.845Z,14.98
2022-12-23T04:52:52.244Z,19.75
2022-12-23T04:55:20.632Z,17.17
2022-12-23T04:57:49.084Z,17.08
2022-12-23T05:00:17.962Z,17.42
2022-12-23T05:02:46.519Z,21.48
2022-12-23T05:05:15.012Z,17.13
2022-12-23T05:07:43.506Z,19.13
2022-12-23T05:10:11.941Z,19.80
2022-12-23T05:12:40.360Z,16.23
2022-12-23T05:15:09.129Z,17.38
2022-12-23T05:17:37.670Z,19.23
2022-12-23T05:20:06.927Z,21.52
2022-12-23T05:22:35.411Z,22.08
2022-12-23T05:25:04.051Z,21.60
2022-12-23T05:27:32.433Z,21.27
2022-12-23T05:30:00.769Z,19.05
2022-12-23T05:32:29.157Z,20.60
2022-12-23T05:34:57.599Z,23.98
2022-12-23T05:37:25.953Z,22.33
2022-12-23T05:39:54.381Z,25.67
2022-12-23T05:42:22.807Z,22.92
2022-12-23T05:44:51.149Z,22.27
2022-12-23T05:47:19.612Z,24.48
2022-12-23T05:49:48.018Z,22.67
2022-12-23T05:52:16.379Z,21.67
2022-12-23T05:54:44.842Z,21.83
2022-12-23T05:57:13.221Z,22.05
2022-12-23T05:59:41.678Z,19.27
2022-12-23T06:02:10.344Z,19.25
2022-12-23T06:04:38.850Z,24.48
2022-12-23T06:07:07.587Z,21.77
2022-12-23T06:09:36.049Z,21.27
2022-12-23T06:12:04.685Z,24.40
2022-12-23T06:14:33.116Z,24.25
2022-12-23T06:17:01.648Z,23.42
2022-12-23T06:19:30.031Z,25.23
2022-12-23T06:21:58.444Z,20.98
2022-12-23T06:24:26.836Z,23.00
2022-12-23T06:26:57.544Z,22.80
2022-12-23T06:29:26.217Z,21.35
2022-12-23T06:31:54.713Z,23.65
2022-12-23T06:34:23.224Z,23.33
2022-12-23T06:36:51.745Z,23.98
2022-12-23T06:39:20.374Z,23.08
2022-12-23T06:41:48.959Z,21.83
2022-12-23T06:44:17.674Z,22.10
2022-12-23T06:46:46.383Z,24.67
2022-12-23T06:49:14.851Z,25.25
2022-12-23T06:51:43.202Z,21.63
2022-12-23T06:54:12.036Z,28.52
2022-12-23T06:56:40.594Z,25.15
2022-12-23T06:59:08.946Z,23.80
2022-12-23T07:01:37.426Z,22.48
2022-12-23T07:04:06.489Z,25.75
2022-12-23T07:06:35.057Z,22.90
2022-12-23T07:09:03.455Z,25.98
2022-12-23T07:11:32.215Z,29.58
2022-12-23T07:14:00.675Z,26.05
2022-12-23T07:16:29.228Z,27.40
2022-12-23T07:18:57.740Z,25.70
2022-12-23T07:21:29.397Z,28.75
2022-12-23T07:23:58.099Z,26.15
2022-12-23T07:26:26.685Z,28.98
2022-12-23T07:28:55.076Z,30.73
2022-12-23T07:31:23.862Z,26.40
2022-12-23T07:33:52.472Z,24.40
2022-12-23T07:36:20.956Z,27.90
2022-12-23T07:38:51.507Z,28.33
2022-12-23T07:41:19.913Z,23.38
2022-12-23T07:43:48.348Z,26.23
2022-12-23T07:46:16.735Z,28.63
2022-12-23T07:48:45.285Z,25.08
2022-12-23T07:51:13.761Z,26.50
2022-12-23T07:53:42.250Z,22.27
2022-12-23T07:56:10.633Z,24.90
2022-12-23T07:58:39.157Z,21.83
2022-12-23T08:01:08.170Z,21.10
2022-12-23T08:03:37.002Z,23.88
2022-12-23T08:06:14.195Z,20.40
2022-12-23T08:08:44.844Z,25.70
2022-12-23T08:11:14.839Z,21.75
2022-12-23T08:13:45.217Z,22.63
2022-12-23T08:16:13.880Z,21.73
2022-12-23T08:18:42.678Z,20.75
2022-12-23T08:21:13.139Z,18.33
2022-12-23T08:23:43.417Z,20.63
2022-12-23T08:26:15.251Z,19.63
2022-12-23T08:28:45.128Z,21.23
2022-12-23T08:31:22.698Z,17.00
2022-12-23T08:33:54.797Z,20.67
2022-12-23T08:36:26.032Z,16.30
2022-12-23T08:38:57.055Z,17.50
2022-12-23T08:41:28.132Z,16.05
2022-12-23T08:43:56.900Z,18.20
2022-12-23T08:46:25.984Z,16.50
2022-12-23T08:48:54.603Z,16.00
2022-12-23T08:51:24.720Z,16.45
2022-12-23T08:54:00.855Z,16.75
2022-12-23T08:56:33.323Z,17.20
2022-12-23T08:59:02.959Z,19.02
2022-12-23T09:01:33.910Z,15.38
2022-12-23T09:04:04.698Z,11.77
2022-12-23T09:06:40.681Z,14.68
2022-12-23T09:09:11.528Z,13.07
2022-12-23T09:11:39.957Z,15.25
2022-12-23T09:14:10.156Z,10.02
2022-12-23T09:16:39.399Z,11.80
2022-12-23T09:19:08.096Z,10.40
2022-12-23T09:21:36.974Z,14.75
2022-12-23T09:24:05.948Z,11.63
2022-12-23T09:26:34.581Z,11.90
2022-12-23T09:29:03.094Z,13.55
2022-12-23T09:31:36.777Z,12.18
2022-12-23T09:34:06.282Z,12.27
2022-12-23T09:36:34.887Z,12.68
2022-12-23T09:39:04.148Z,12.10
2022-12-23T09:41:48.543Z,15.48
2022-12-23T09:45:04.869Z,11.25
2022-12-23T09:47:34.385Z,12.23
2022-12-23T09:50:15.004Z,11.63
2022-12-23T09:52:54.354Z,12.75
2022-12-23T09:55:28.503Z,13.13
2022-12-23T09:58:14.415Z,9.68
2022-12-23T10:01:00.485Z,15.25
2022-12-23T10:04:00.146Z,10.43
2022-12-23T10:06:30.768Z,13.55
2022-12-23T10:09:02.606Z,9.82
2022-12-23T10:11:43.797Z,10.05
2022-12-23T10:14:18.764Z,10.70
2022-12-23T10:16:55.349Z,9.88
2022-12-23T10:19:32.024Z,9.43
2022-12-23T10:22:11.690Z,11.13
2022-12-23T10:24:43.302Z,13.05
2022-12-23T10:27:37.093Z,12.43
2022-12-23T10:30:53.518Z,8.50
2022-12-23T10:33:21.932Z,10.32
2022-12-23T10:36:05.806Z,9.10
2022-12-23T10:38:43.377Z,10.88
2022-12-23T10:41:17.741Z,8.30
2022-12-23T10:44:14.673Z,9.43
2022-12-23T10:46:50.416Z,10.52
2022-12-23T10:49:51.525Z,9.63
2022-12-23T10:52:23.667Z,7.63
2022-12-23T10:54:52.203Z,9.60
2022-12-23T10:57:21.127Z,8.20
2022-12-23T10:59:49.641Z,10.30
2022-12-23T11:02:49.792Z,8.35
2022-12-23T11:05:27.176Z,9.93
2022-12-23T11:07:55.877Z,7.57
2022-12-23T11:10:32.785Z,7.97
2022-12-23T11:13:01.762Z,10.73
2022-12-23T11:15:35.796Z,9.77
2022-12-23T11:18:07.046Z,8.48
2022-12-23T11:20:37.001Z,8.88
2022-12-23T11:23:22.505Z,7.50
2022-12-23T11:26:00.806Z,8.38
2022-12-23T11:28:30.640Z,7.53
2022-12-23T11:31:08.056Z,10.18
2022-12-23T11:33:40.799Z,7.28
2022-12-23T11:36:12.626Z,9.68
2022-12-23T11:38:49.865Z,9.65
2022-12-23T11:41:21.591Z,8.57
2022-12-23T11:44:01.571Z,5.95
2022-12-23T11:46:32.689Z,8.38
2022-12-23T11:49:22.892Z,5.53
2022-12-23T11:52:12.116Z,9.43
2022-12-23T11:54:40.650Z,9.73
2022-12-23T11:57:19.087Z,10.02
2022-12-23T11:59:50.181Z,7.65
2022-12-23T12:02:26.693Z,6.43
2022-12-23T12:05:03.011Z,8.02
2022-12-23T12:07:32.849Z,7.07
2022-12-23T12:10:02.697Z,7.82
2022-12-23T12:12:32.751Z,9.38
2022-12-23T12:15:01.370Z,10.63
2022-12-23T12:17:49.638Z,7.97
2022-12-23T12:20:29.052Z,10.63
2022-12-23T12:23:09.166Z,6.10
2022-12-23T12:25:44.782Z,7.22
2022-12-23T12:28:26.221Z,8.52
2022-12-23T12:31:04.742Z,7.17
2022-12-23T12:33:44.877Z,8.20
2022-12-23T12:36:28.786Z,9.45
2022-12-23T12:38:59.865Z,8.55
2022-12-23T12:41:38.016Z,8.63
2022-12-23T12:44:36.568Z,9.45
2022-12-23T12:47:53.695Z,8.48
2022-12-23T12:50:30.362Z,6.57
2022-12-23T12:53:04.013Z,5.70
2022-12-23T12:55:37.862Z,6.45
2022-12-23T12:58:18.007Z,6.45
2022-12-23T13:00:54.200Z,6.68
2022-12-23T13:03:57.219Z,5.78
2022-12-23T13:06:57.754Z,7.05
2022-12-23T13:09:54.424Z,6.57
2022-12-23T13:12:54.132Z,7.40
2022-12-23T13:15:50.108Z,7.15
2022-12-23T13:18:30.632Z,6.95
2022-12-23T13:21:21.644Z,7.47
2022-12-23T13:24:07.764Z,9.10
2022-12-23T13:26:39.414Z,8.70
2022-12-23T13:29:42.960Z,5.47
2022-12-23T13:32:41.332Z,5.45
2022-12-23T13:35:18.959Z,5.13
2022-12-23T13:37:59.536Z,6.45
2022-12-23T13:40:39.644Z,8.02
2022-12-23T13:43:26.347Z,5.35
2022-12-23T13:45:58.513Z,6.20
2022-12-23T13:51:12.866Z,5.13
2022-12-23T13:54:09.839Z,5.82
2022-12-23T13:57:01.451Z,5.13
2022-12-23T13:59:42.141Z,4.90
2022-12-23T14:02:36.450Z,4.68
2022-12-23T14:05:10.454Z,4.57
2022-12-23T14:07:44.764Z,3.80
2022-12-23T14:10:21.845Z,5.63
2022-12-23T14:12:53.116Z,5.10
2022-12-23T14:15:59.584Z,3.87
2022-12-23T14:18:54.063Z,4.55
2022-12-23T14:21:32.045Z,4.35
2022-12-23T14:24:31.758Z,8.07
2022-12-23T14:27:25.148Z,4.97
2022-12-23T14:30:15.073Z,4.40
2022-12-23T14:33:01.932Z,5.00
2022-12-23T14:35:38.475Z,5.45
2022-12-23T14:38:30.195Z,6.93
2022-12-23T14:41:19.126Z,4.93
2022-12-23T14:43:52.703Z,6.60
2022-12-23T14:46:36.525Z,6.13
2022-12-23T14:49:44.560Z,8.70
2022-12-23T14:52:48.568Z,4.90
2022-12-23T14:55:40.683Z,5.15
2022-12-23T14:58:18.670Z,4.60
2022-12-23T15:01:02.328Z,9.88
2022-12-23T15:03:35.246Z,5.85
2022-12-23T15:06:07.185Z,6.10
2022-12-23T15:08:40.616Z,5.25
2022-12-23T15:11:20.732Z,6.47
2022-12-23T15:13:52.216Z,5.65
2022-12-23T15:16:31.727Z,5.78
2022-12-23T15:19:12.322Z,6.10
2022-12-23T15:21:40.752Z,7.38
2022-12-23T15:24:25.101Z,8.07
2022-12-23T15:27:17.846Z,8.02
2022-12-23T15:29:52.277Z,7.15
2022-12-23T15:32:23.420Z,7.60
2022-12-23T15:34:54.951Z,8.85
2022-12-23T15:37:29.367Z,10.13
2022-12-23T15:40:09.496Z,11.52
2022-12-23T15:42:47.381Z,9.50
2022-12-23T15:45:38.664Z,7.78
2022-12-23T15:48:25.197Z,10.10
2022-12-23T15:50:58.799Z,9.00
2022-12-23T15:53:38.625Z,9.15
2022-12-23T15:56:10.289Z,9.23
2022-12-23T15:58:41.999Z,9.55
2022-12-23T16:01:18.552Z,10.05
2022-12-23T16:03:58.937Z,9.18
2022-12-23T16:06:33.010Z,8.82
2022-12-23T16:09:03.014Z,6.88
2022-12-23T16:12:04.263Z,7.80
2022-12-23T16:14:36.515Z,5.88
2022-12-23T16:17:08.417Z,6.50
2022-12-23T16:19:48.128Z,5.75
2022-12-23T16:22:49.072Z,7.30
2022-12-23T16:25:31.154Z,6.25
2022-12-23T16:28:17.776Z,9.05
2022-12-23T16:30:49.498Z,7.22
2022-12-23T16:33:38.633Z,6.22
2022-12-23T16:36:21.553Z,7.32
2022-12-23T16:38:52.564Z,8.05
2022-12-23T16:41:21.022Z,6.95
2022-12-23T16:43:52.827Z,7.18
2022-12-23T16:49:16.018Z,9.05
2022-12-23T16:51:45.553Z,10.15
2022-12-23T16:54:16.509Z,11.07
2022-12-23T16:56:46.846Z,9.57
2022-12-23T16:59:16.310Z,8.23
2022-12-23T17:01:47.199Z,12.85
2022-12-23T17:04:16.071Z,11.15
2022-12-23T17:06:46.521Z,10.00
2022-12-23T17:09:15.120Z,12.32
2022-12-23T17:11:47.012Z,15.18
2022-12-23T17:14:21.685Z,8.73
2022-12-23T17:16:51.019Z,11.38
2022-12-23T17:19:27.718Z,13.65
2022-12-23T17:22:02.373Z,10.77
2022-12-23T17:24:31.226Z,8.68
2022-12-23T17:26:59.717Z,12.38
2022-12-23T17:29:28.750Z,10.73
2022-12-23T17:31:57.427Z,15.10
2022-12-23T17:34:26.197Z,11.00
2022-12-23T17:36:54.746Z,10.23
2022-12-23T17:39:24.230Z,10.85
2022-12-23T17:41:52.626Z,14.50
2022-12-23T17:44:21.274Z,10.15
2022-12-23T17:46:49.846Z,16.05
2022-12-23T17:49:18.296Z,15.07
2022-12-23T17:51:46.967Z,12.40
2022-12-23T17:54:24.615Z,12.02
2022-12-23T17:56:53.270Z,9.15
2022-12-23T17:59:21.975Z,9.65
2022-12-23T18:01:50.819Z,15.93
2022-12-23T18:04:19.443Z,11.05
2022-12-23T18:06:47.961Z,11.73
2022-12-23T18:09:18.776Z,12.18
2022-12-23T18:11:47.569Z,10.13
2022-12-23T18:14:24.486Z,11.88
2022-12-23T18:16:53.312Z,11.82
2022-12-23T18:19:22.167Z,10.32
2022-12-23T18:21:51.724Z,10.75
2022-12-23T18:24:21.370Z,14.77
2022-12-23T18:26:49.943Z,17.77
2022-12-23T18:29:18.626Z,11.68
2022-12-23T18:31:51.371Z,11.30
2022-12-23T18:34:21.240Z,17.50
2022-12-23T18:36:51.555Z,11.35
2022-12-23T18:39:21.046Z,12.88
2022-12-23T18:41:49.680Z,14.20
2022-12-23T18:44:20.644Z,13.27
2022-12-23T18:46:50.481Z,13.35
2022-12-23T18:49:19.041Z,19.02
2022-12-23T18:51:48.657Z,9.52
2022-12-23T18:54:17.388Z,12.77
2022-12-23T18:56:46.634Z,13.68
2022-12-23T18:59:29.202Z,13.48
2022-12-23T19:01:59.922Z,11.05
2022-12-23T19:04:28.938Z,10.65
2022-12-23T19:06:58.066Z,15.55
2022-12-23T19:09:26.877Z,12.90
2022-12-23T19:11:55.418Z,12.88
2022-12-23T19:14:23.974Z,10.18
2022-12-23T19:16:52.979Z,13.82
2022-12-23T19:19:21.939Z,11.57
2022-12-23T19:21:50.557Z,13.95
2022-12-23T19:24:19.054Z,10.40
2022-12-23T19:26:47.554Z,12.50
2022-12-23T19:29:17.037Z,11.50
2022-12-23T19:31:45.526Z,12.82
2022-12-23T19:34:15.623Z,9.95
2022-12-23T19:36:44.681Z,10.88
2022-12-23T19:39:16.173Z,12.43
2022-12-23T19:41:45.348Z,11.63
2022-12-23T19:44:14.519Z,13.18
2022-12-23T19:46:43.089Z,9.93
2022-12-23T19:49:17.559Z,11.82
2022-12-23T19:51:48.568Z,8.77
2022-12-23T19:54:18.410Z,12.07
2022-12-23T19:56:50.500Z,17.38
2022-12-23T20:01:47.860Z,14.52
2022-12-23T20:04:17.461Z,9.38
2022-12-23T20:06:46.007Z,12.57
2022-12-23T20:09:14.585Z,11.95
2022-12-23T20:11:45.724Z,12.45
2022-12-23T20:14:17.256Z,12.15
2022-12-23T20:16:45.759Z,13.15
2022-12-23T20:19:14.453Z,15.02
2022-12-23T20:21:42.925Z,11.52
2022-12-23T20:24:12.051Z,14.40
2022-12-23T20:26:42.987Z,15.15
2022-12-23T20:29:11.475Z,12.07
2022-12-23T20:31:40.056Z,14.57
2022-12-23T20:34:13.510Z,11.57
2022-12-23T20:36:42.164Z,15.55
2022-12-23T20:39:10.659Z,12.05
2022-12-23T20:41:39.082Z,12.52
2022-12-23T20:44:33.711Z,10.07
2022-12-23T20:46:55.951Z,14.32
2022-12-23T20:49:24.465Z,12.40
2022-12-23T20:51:52.923Z,12.32
2022-12-23T20:54:23.823Z,14.57
2022-12-23T20:56:56.627Z,12.75
2022-12-23T20:59:25.302Z,13.18
2022-12-23T21:01:53.878Z,12.43
2022-12-23T21:04:22.633Z,9.85
2022-12-23T21:06:51.485Z,13.38
2022-12-23T21:09:20.331Z,11.38
2022-12-23T21:11:48.900Z,13.25
2022-12-23T21:14:17.363Z,11.27
2022-12-23T21:16:45.923Z,11.05
2022-12-23T21:19:20.457Z,11.77
2022-12-23T21:21:50.281Z,10.05
2022-12-23T21:24:19.788Z,9.07
2022-12-23T21:26:56.533Z,8.18
2022-12-23T21:29:26.564Z,12.07
2022-12-23T21:31:55.495Z,12.02
2022-12-23T21:34:24.267Z,11.65
2022-12-23T21:36:52.858Z,12.70
2022-12-23T21:39:21.421Z,15.07
2022-12-23T21:41:51.324Z,7.20
2022-12-23T21:44:20.170Z,13.38
2022-12-23T21:46:50.351Z,11.68
2022-12-23T21:49:20.901Z,12.05
2022-12-23T21:51:49.515Z,8.85
2022-12-23T21:54:17.854Z,11.65
2022-12-23T21:56:46.264Z,14.55
2022-12-23T21:59:14.827Z,9.98
2022-12-23T22:01:43.892Z,11.77
2022-12-23T22:04:12.686Z,8.32
2022-12-23T22:06:45.725Z,11.60
2022-12-23T22:09:17.343Z,12.68
2022-12-23T22:11:46.779Z,10.77
2022-12-23T22:14:17.282Z,10.30
2022-12-23T22:16:45.709Z,9.65
2022-12-23T22:19:14.638Z,9.90
2022-12-23T22:21:43.198Z,11.27
2022-12-23T22:24:11.751Z,12.60
2022-12-23T22:26:41.014Z,8.80
2022-12-23T22:29:10.623Z,11.02
2022-12-23T22:31:45.286Z,11.00
2022-12-23T22:34:17.323Z,10.57
2022-12-23T22:36:45.859Z,9.52
2022-12-23T22:39:20.627Z,10.98
2022-12-23T22:41:51.254Z,12.70
2022-12-23T22:44:20.594Z,12.05
2022-12-23T22:46:49.520Z,10.55
2022-12-23T22:49:18.119Z,11.68
2022-12-23T22:51:46.622Z,9.55
2022-12-23T22:54:15.249Z,9.77
2022-12-23T22:56:45.718Z,11.38
2022-12-23T22:59:23.507Z,10.73
2022-12-23T23:01:52.997Z,8.45
2022-12-23T23:04:21.578Z,9.27
2022-12-23T23:06:50.141Z,12.73
2022-12-23T23:09:20.024Z,14.10
2022-12-23T23:11:49.681Z,13.65
2022-12-23T23:14:18.663Z,12.93
2022-12-23T23:16:47.391Z,12.70
2022-12-23T23:19:16.465Z,12.57
2022-12-23T23:21:44.935Z,11.23
2022-12-23T23:24:13.325Z,11.65
2022-12-23T23:26:41.714Z,11.77
2022-12-23T23:29:10.207Z,11.38
2022-12-23T23:31:42.318Z,13.63
2022-12-23T23:34:12.188Z,13.85
2022-12-23T23:36:40.783Z,14.55
2022-12-23T23:39:12.302Z,12.45
2022-12-23T23:41:41.272Z,19.17
2022-12-23T23:44:11.044Z,20.95
2022-12-23T23:46:40.085Z,11.60
2022-12-23T23:49:08.714Z,12.25
2022-12-23T23:51:37.354Z,9.57
2022-12-23T23:54:06.409Z,16.45
2022-12-23T23:56:38.654Z,12.88
2022-12-23T23:59:09.354Z,13.02
